Home > Products > Valid Products > TAF

000
FTUS43 KMQT 171700
TAFCMX
TAF
KCMX 171735Z 1718/1818 11010G18KT 2SM -SN OVC005
     FM172000 17012KT 4SM -SN OVC006
     FM180000 26010KT 4SM -FZDZ OVC008
     FM180300 27007KT 2SM -FZDZ OVC008
     FM181300 29007KT P6SM BKN040=



000
FTUS43 KMQT 171700
TAFSAW
TAF
KSAW 171735Z 1718/1818 14010KT 1SM -SN OVC008
     FM171900 20007KT 4SM -SN OVC010
     FM180000 27006KT P6SM BKN020
     FM180600 30005KT P6SM OVC015
     FM181300 32009KT P6SM OVC040
      AMD LTD TO CLD VIS AND WIND 1802/1810=



000
FTUS43 KMQT 171700 AAA
TAFSAW
TAF AMD
KSAW 171704Z 1717/1812 14010KT 1SM -SN OVC008
     FM171900 20007KT P6SM OVC010
     FM180000 27006KT P6SM BKN020
     FM180600 30005KT P6SM OVC015
      AMD LTD TO CLD VIS AND WIND 1802/1810=



000
FTUS43 KMQT 171600 AAB
TAFCMX
TAF AMD
KCMX 171601Z 1716/1812 11011G20KT 1/4SM +SN OVC002
      TEMPO 1716/1717 1SM -SN OVC003
     FM171700 11007KT 2SM -SN OVC006
     FM171800 11006KT P6SM OVC006
     FM172200 28009KT P6SM OVC006
     FM180100 30010KT P6SM OVC008=



000
FTUS43 KMQT 171300 AAA
TAFCMX
TAF AMD
KCMX 171332Z 1714/1812 11011G20KT 1/4SM +SN OVC002
     FM171600 11007KT 2SM -SN OVC006
     FM171800 11006KT P6SM OVC006
     FM172200 28009KT P6SM OVC006
     FM180100 30010KT P6SM OVC008=



000
FTUS43 KMQT 171100
TAFCMX
TAF
KCMX 171135Z 1712/1812 11011G20KT 1/2SM SN OVC003
     FM171600 11007KT 2SM -SN OVC006
     FM171800 11006KT P6SM OVC006
     FM172200 28009KT P6SM OVC006
     FM180100 30010KT P6SM OVC008=



000
FTUS43 KMQT 171100
TAFSAW
TAF
KSAW 171135Z 1712/1812 13011KT 1SM -SN OVC008
      TEMPO 1713/1716 1/2SM SN OVC004
     FM171700 14010KT P6SM -SN OVC008
     FM172000 20007KT P6SM OVC010
     FM180000 27006KT P6SM BKN020
     FM180600 30005KT P6SM OVC015
      AMD LTD TO CLD VIS AND WIND 1802/1810=



000
FTUS43 KMQT 170600 AAA
TAFSAW
TAF AMD
KSAW 170651Z 1707/1806 12010KT 3SM -SN OVC008
      TEMPO 1707/1709 6SM -SN SCT008 BKN020
     FM171400 12011KT 1 1/2SM -SN OVC006
     FM171700 14010KT P6SM -SN OVC008
     FM172200 25007KT P6SM OVC010
     FM180000 27006KT P6SM BKN020
      AMD LTD TO CLD VIS AND WIND TIL 171000=



000
FTUS43 KMQT 170500
TAFSAW
TAF
KSAW 170535Z 1706/1806 12010KT 2SM -SN OVC008
      TEMPO 1706/1708 1SM -SN OVC005
     FM171000 12011KT 3SM -SN OVC008
     FM171400 12011KT 1 1/2SM -SN OVC006
     FM171700 14010KT P6SM -SN OVC008
     FM172200 25007KT P6SM OVC010
     FM180000 27006KT P6SM BKN020
      AMD LTD TO CLD VIS AND WIND TIL 171000=



000
FTUS43 KMQT 170500
TAFCMX
TAF
KCMX 170535Z 1706/1806 09015G23KT 1SM -SN OVC004
     FM171000 11011KT 1/2SM SN OVC003
     FM171600 11007KT 2SM -SN OVC006
     FM171800 11006KT P6SM OVC006
     FM172200 28009KT P6SM OVC006
     FM180100 30010KT P6SM OVC012=



000
FTUS43 KMQT 170200 AAB
TAFSAW
TAF AMD
KSAW 170243Z 1703/1724 12010KT 3/4SM -SN OVC004
      TEMPO 1704/1706 1 1/2SM -SN OVC007
     FM170600 12011G16KT 3SM -SN OVC008
     FM171400 14012KT 1SM -SN OVC006
     FM171700 16010KT 5SM -SN OVC008
     FM172000 25008KT P6SM OVC020
      AMD LTD TO CLD VIS AND WIND 1702/1710=



000
FTUS43 KMQT 170100 AAA
TAFSAW
TAF AMD
KSAW 170155Z 1702/1724 12010KT 1 1/2SM -SN OVC010
     FM170600 12011G16KT 3SM -SN OVC008
     FM171400 14012KT 1SM -SN OVC006
     FM171700 16010KT 5SM -SN OVC008
     FM172000 25008KT P6SM OVC020
      AMD LTD TO CLD VIS AND WIND 1702/1710=



000
FTUS43 KMQT 162300
TAFCMX
TAF
KCMX 162336Z 1700/1724 09011G17KT 1/2SM SN OVC004
      TEMPO 1700/1701 1/4SM +SN
     FM170900 11011KT 1/4SM +SN OVC003
     FM171500 11007KT 2SM -SN OVC005
     FM171900 VRB03KT 5SM -SN OVC008
     FM172200 29009KT P6SM OVC010=



000
FTUS43 KMQT 162300
TAFSAW
TAF
KSAW 162336Z 1700/1724 13011G16KT 2SM -SN OVC010
     FM170400 12011G16KT 3SM -SN OVC008
     FM171400 14012KT 1SM -SN OVC006
     FM171700 16010KT 5SM -SN OVC008
     FM172000 25008KT P6SM OVC020
      AMD LTD TO CLD VIS AND WIND 1702/1710=



000
FTUS43 KMQT 162000 AAA
TAFCMX
TAF AMD
KCMX 162000Z 1620/1718 10008KT 1SM -SN OVC025
     FM162100 09010KT 3/4SM -SN OVC015
     FM162300 09014G23KT 1/2SM SN BLSN OVC007=



000
FTUS43 KMQT 161800 AAA
TAFSAW
TAF AMD
KSAW 161853Z 1619/1718 17008KT 2SM -SN OVC015
     FM162000 11014KT 3/4SM -SN OVC012
     FM170400 12012KT 3SM -SN OVC008
     FM171500 14012KT 1SM -SN OVC007
      AMD LTD TO CLD VIS AND WIND 1702/1710=



000
FTUS43 KMQT 161700
TAFSAW
TAF
KSAW 161738Z 1618/1718 21010G15KT P6SM SCT025 BKN035
     FM162000 14008KT 3SM -SN OVC020
     FM162100 11014KT 1SM -SN OVC012
     FM170400 12012KT 3SM -SN OVC008
     FM171500 14012KT 1SM -SN OVC007
      AMD LTD TO CLD VIS AND WIND 1702/1710=



000
FTUS43 KMQT 161700
TAFCMX
TAF
KCMX 161738Z 1618/1718 14005KT P6SM BKN100
     FM162000 11008KT 4SM -SN OVC025
     FM162100 09010KT 2SM -SN OVC015
     FM162300 09014G23KT 1/2SM SN BLSN OVC007=



000
FTUS43 KMQT 161400 AAB
TAFSAW
TAF AMD
KSAW 161411Z 1614/1712 18007KT P6SM BKN100
     FM161900 14008KT 3SM -SN OVC025
     FM162100 11014KT 1SM -SN BLSN OVC012
     FM170200 12012KT 2SM -SN OVC007
      AMD LTD TO CLD VIS AND WIND 1702/1710=



000
FTUS43 KMQT 161300 AAA
TAFSAW
TAF AMD
KSAW 161306Z 1613/1712 VRB03KT P6SM SCT200
      TEMPO 1613/1614 BKN002
     FM161400 15007KT P6SM BKN010
     FM161900 14008KT 3SM -SN OVC025
     FM162100 11014KT 1SM -SN BLSN OVC012
     FM170200 12012KT 2SM -SN OVC007
      AMD LTD TO CLD VIS AND WIND 1702/1710=



000
FTUS43 KMQT 161100
TAFSAW
TAF
KSAW 161127Z 1612/1712 VRB03KT P6SM SCT200
      TEMPO 1612/1614 BKN010
     FM161400 15007KT P6SM BKN010
     FM161900 14008KT 3SM -SN OVC025
     FM162100 11014KT 1SM -SN BLSN OVC012
     FM170200 12012KT 2SM -SN OVC007
      AMD LTD TO CLD VIS AND WIND 1702/1710=



000
FTUS43 KMQT 161100
TAFCMX
TAF
KCMX 161127Z 1612/1712 VRB03KT P6SM SCT200
     FM161400 14005KT P6SM BKN100
     FM162000 11008KT P6SM -SN OVC050
     FM162100 09010KT 3SM -SN OVC025
     FM162300 09014G23KT 1/2SM SN BLSN OVC007=



000
FTUS43 KMQT 160500
TAFSAW
TAF
KSAW 160532Z 1606/1706 VRB03KT P6SM SCT200
      TEMPO 1608/1612 3SM BR SCT005
     FM161400 15007KT P6SM BKN060
     FM161900 14008KT 3SM -SN OVC025
     FM162100 11014KT 1SM -SN BLSN OVC012
     FM170200 10012KT 2SM -SN OVC007
      AMD LTD TO CLD VIS AND WIND TIL 161000=



000
FTUS43 KMQT 160500
TAFCMX
TAF
KCMX 160532Z 1606/1706 VRB03KT P6SM SCT200
     FM161400 14005KT P6SM BKN100
     FM161800 11008KT P6SM -SN OVC050
     FM161900 09010KT 3SM -SN OVC025
     FM162100 09014G23KT 1/2SM SN BLSN OVC007
     FM170400 08014KT 1SM -SN BLSN OVC007=



000
FTUS43 KMQT 160400 AAA
TAFSAW
TAF AMD
KSAW 160422Z 1604/1624 VRB03KT 3SM BR SCT007
      TEMPO 1604/1606 6SM BR SKC
     FM160600 VRB03KT P6SM SCT200
     FM161700 14008KT 3SM -SN OVC020
     FM162100 10015KT 1SM -SN OVC012
      AMD LTD TO CLD VIS AND WIND 1604/1610=



000
FTUS43 KMQT 152300
TAFCMX
TAF
KCMX 152336Z 1600/1624 28006KT P6SM SCT200
     FM161400 11008KT P6SM OVC060
     FM161700 09010KT 3SM -SN OVC020
     FM161900 09015KT 3/4SM -SN OVC012=



000
FTUS43 KMQT 152300
TAFSAW
TAF
KSAW 152336Z 1600/1624 VRB03KT P6SM SCT200
      TEMPO 1600/1601 5SM -SHSN BKN018
     FM161700 14008KT 3SM -SN OVC020
     FM162100 10015KT 1SM -SN OVC012
      AMD LTD TO CLD VIS AND WIND 1602/1610=



000
FTUS43 KMQT 152200 AAC
TAFSAW
TAF AMD
KSAW 152205Z 1522/1618 01009KT P6SM -SHSN BKN035
      TEMPO 1522/1523 BKN020
     FM160000 VRB03KT P6SM SCT200
     FM161700 14008KT 3SM -SN OVC020
      AMD LTD TO CLD VIS AND WIND 1602/1610=



000
FTUS43 KMQT 152100 AAB
TAFSAW
TAF AMD
KSAW 152109Z 1521/1618 02008KT 4SM -SHSN OVC015
      TEMPO 1521/1522 1/2SM SHSN OVC005
     FM152200 01009KT P6SM -SHSN BKN035
     FM152300 01008KT P6SM SCT035
     FM160000 VRB03KT P6SM SCT200
     FM161700 14008KT 3SM -SN OVC020
      AMD LTD TO CLD VIS AND WIND 1602/1610=



000
FTUS43 KMQT 152000 AAA
TAFSAW
TAF AMD
KSAW 152019Z 1520/1618 02008KT 4SM -SHSN OVC015
      TEMPO 1520/1521 1SM -SHSN OVC005
     FM152100 01009KT P6SM -SHSN BKN035
     FM152300 01008KT P6SM SCT035
     FM160000 VRB03KT P6SM SCT200
     FM161700 14008KT 3SM -SN OVC020
      AMD LTD TO CLD VIS AND WIND 1602/1610=



000
FTUS43 KMQT 151700
TAFSAW
TAF
KSAW 151737Z 1518/1618 36006KT 4SM -SHSN OVC025
      TEMPO 1518/1519 1 1/2SM -SHSN OVC012
     FM152000 01009KT P6SM -SHSN BKN035
     FM152200 01008KT P6SM SCT035
     FM160000 VRB03KT P6SM SCT200
     FM161700 14008KT 3SM -SN OVC020
      AMD LTD TO CLD VIS AND WIND 1602/1610=



000
FTUS43 KMQT 151700
TAFCMX
TAF
KCMX 151737Z 1518/1618 36005KT P6SM -SHSN FEW020 BKN035
      TEMPO 1518/1519 4SM -SHSN BKN025
     FM152000 29008KT P6SM BKN035
     FM160000 28005KT P6SM BKN200
     FM161400 11008KT P6SM OVC060
     FM161700 09010KT 3SM -SN OVC020=



000
FTUS43 KMQT 151700 AAA
TAFSAW
TAF AMD
KSAW 151709Z 1517/1612 36006KT 2SM -SN OVC012
     FM151900 01009KT P6SM -SHSN BKN035
     FM160000 VRB03KT P6SM SCT200
      AMD LTD TO CLD VIS AND WIND 1602/1610=



000
FTUS43 KMQT 151400 AAA
TAFCMX
TAF AMD
KCMX 151413Z 1514/1612 29005KT 1 1/2SM -SN BKN015
      TEMPO 1514/1516 4SM -SHSN BKN025
     FM151600 29008KT P6SM BKN035
     FM160000 25005KT P6SM BKN200=



000
FTUS43 KMQT 151100
TAFSAW
TAF
KSAW 151120Z 1512/1612 34009KT P6SM SCT035
     FM151500 01009KT P6SM -SHSN BKN035
     FM160000 VRB03KT P6SM SCT200
      AMD LTD TO CLD VIS AND WIND 1602/1610=



000
FTUS43 KMQT 151100
TAFCMX
TAF
KCMX 151120Z 1512/1612 32005KT P6SM BKN035
      TEMPO 1512/1514 2SM -SHSN BKN025
     FM152000 29009KT P6SM BKN035
     FM160000 25005KT P6SM BKN200=



000
FTUS43 KMQT 150500
TAFSAW
TAF
KSAW 150531Z 1506/1606 34009KT P6SM SCT035
     FM151400 01009KT P6SM -SHSN BKN035
     FM160000 VRB03KT P6SM SCT200
      AMD LTD TO CLD VIS AND WIND TIL 151000=



000
FTUS43 KMQT 150500
TAFCMX
TAF
KCMX 150531Z 1506/1606 36005KT P6SM -SHSN BKN035
      TEMPO 1506/1508 -SHSN BKN025
     FM152000 29009KT P6SM BKN035
     FM160000 25005KT P6SM BKN200=



000
FTUS43 KMQT 150200 AAA
TAFCMX
TAF AMD
KCMX 150235Z 1503/1524 36005KT P6SM -SHSN BKN035
     FM152000 29009KT P6SM BKN035=



000
FTUS43 KMQT 142300
TAFSAW
TAF
KSAW 142328Z 1500/1524 34010G20KT P6SM -SHSN BKN035
      TEMPO 1500/1502 5SM -SHSN BKN015
     FM150200 34009KT P6SM SCT035
     FM151400 01009KT P6SM -SHSN BKN035
      AMD LTD TO CLD VIS AND WIND 1502/1510=



000
FTUS43 KMQT 142300
TAFCMX
TAF
KCMX 142328Z 1500/1524 34012KT P6SM BKN040
      TEMPO 1501/1505 -SHSN BKN030
     FM150500 36005KT P6SM -SHSN BKN030
     FM152000 29009KT P6SM BKN035=



000
FTUS43 KMQT 142100 AAA
TAFCMX
TAF AMD
KCMX 142158Z 1422/1518 33014KT P6SM SCT035
      TEMPO 1501/1505 -SHSN BKN030
     FM150500 36005KT P6SM -SHSN BKN030=



    US Dept of Commerce
    National Oceanic and Atmospheric Administration
    National Weather Service
    1325 East West Highway
    Silver Spring, MD 20910
    Page Author: NWS Internet Services Team
Disclaimer
Information Quality
Credits
Glossary
Privacy Policy
Freedom of Information Act (FOIA)
About Us
Career Opportunities